createdAt,value
2023-12-04T00:01:46.758Z,156065.72
2023-12-04T00:04:15.022Z,156097.41
2023-12-04T00:06:43.555Z,156065.72
2023-12-04T00:09:11.447Z,156077.56
2023-12-04T00:11:40.075Z,156069.66
2023-12-04T00:14:08.509Z,156137.09
2023-12-04T00:16:37.333Z,156105.34
2023-12-04T00:19:05.462Z,156138.41
2023-12-04T00:21:34.315Z,156100.09
2023-12-04T00:24:02.229Z,156121.25
2023-12-04T00:26:30.683Z,156102.72
2023-12-04T00:28:59.632Z,156121.25
2023-12-04T00:31:28.438Z,156176.78
2023-12-04T00:33:56.444Z,156170.16
2023-12-04T00:36:25.047Z,156162.25
2023-12-04T00:38:52.965Z,156131.78
2023-12-04T00:41:21.261Z,156149.00
2023-12-04T00:43:48.992Z,156149.00
2023-12-04T00:46:17.315Z,156168.84
2023-12-04T00:48:45.614Z,156171.47
2023-12-04T00:51:13.517Z,156179.41
2023-12-04T00:53:41.566Z,156205.88
2023-12-04T00:56:10.600Z,156143.72
2023-12-04T00:58:38.780Z,156199.25
2023-12-04T01:01:07.197Z,156213.81
2023-12-04T01:03:35.356Z,156212.50
2023-12-04T01:06:04.370Z,156208.50
2023-12-04T01:08:32.296Z,156228.34
2023-12-04T01:11:00.818Z,156224.41
2023-12-04T01:13:28.695Z,156228.34
2023-12-04T01:15:57.296Z,156216.44
2023-12-04T01:18:25.337Z,156230.97
2023-12-04T01:20:53.795Z,156164.88
2023-12-04T01:23:21.763Z,156199.25
2023-12-04T01:25:50.927Z,156224.41
2023-12-04T01:28:18.468Z,156246.88
2023-12-04T01:30:46.664Z,156208.50
2023-12-04T01:33:14.592Z,156187.34
2023-12-04T01:35:43.179Z,156182.03
2023-12-04T01:38:11.147Z,156225.72
2023-12-04T01:40:39.862Z,156205.88
2023-12-04T01:43:08.034Z,156207.19
2023-12-04T01:45:36.750Z,156201.88
2023-12-04T01:48:05.412Z,156190.00
2023-12-04T01:50:35.905Z,156192.66
2023-12-04T01:53:03.975Z,156192.66
2023-12-04T01:55:34.637Z,156176.78
2023-12-04T01:58:04.503Z,156187.34
2023-12-04T02:00:33.665Z,156150.31
2023-12-04T02:03:02.573Z,156134.47
2023-12-04T02:05:31.326Z,156164.88
2023-12-04T02:07:59.564Z,156168.84
2023-12-04T02:10:27.450Z,156113.31
2023-12-04T02:12:55.382Z,156125.19
2023-12-04T02:15:23.668Z,156110.63
2023-12-04T02:17:51.649Z,156121.25
2023-12-04T02:20:20.038Z,156104.03
2023-12-04T02:22:47.793Z,156122.56
2023-12-04T02:25:26.471Z,156101.41
2023-12-04T02:28:07.775Z,156102.72
2023-12-04T02:30:38.440Z,156110.63
2023-12-04T02:33:07.516Z,156097.41
2023-12-04T02:35:36.953Z,156055.09
2023-12-04T02:38:05.259Z,156113.31
2023-12-04T02:40:33.319Z,156126.50
2023-12-04T02:43:01.098Z,156137.09
2023-12-04T02:45:29.294Z,156127.84
2023-12-04T02:47:58.227Z,156115.94
2023-12-04T02:50:26.531Z,156114.63
2023-12-04T02:52:53.942Z,156123.88
2023-12-04T02:55:22.410Z,156142.41
2023-12-04T02:57:50.207Z,156105.34
2023-12-04T03:00:19.650Z,156073.63
2023-12-04T03:02:47.385Z,156094.78
2023-12-04T03:05:16.350Z,156096.09
2023-12-04T03:07:48.758Z,156098.78
2023-12-04T03:10:18.507Z,156064.41
2023-12-04T03:12:50.587Z,156073.63
2023-12-04T03:15:37.973Z,156064.41
2023-12-04T03:18:09.138Z,156026.03
2023-12-04T03:20:37.512Z,155992.97
2023-12-04T03:23:05.501Z,155963.91
2023-12-04T03:25:33.816Z,156008.88
2023-12-04T03:28:01.831Z,156036.63
2023-12-04T03:30:30.164Z,155979.75
2023-12-04T03:32:58.659Z,155973.19
2023-12-04T03:35:28.282Z,155991.66
2023-12-04T03:37:56.188Z,155942.75
2023-12-04T03:40:24.588Z,155979.75
2023-12-04T03:42:52.742Z,155982.44
2023-12-04T03:45:20.906Z,155957.28
2023-12-04T03:47:48.149Z,155962.59
2023-12-04T03:50:16.808Z,155979.75
2023-12-04T03:52:46.233Z,155970.50
2023-12-04T03:55:15.444Z,156003.56
2023-12-04T03:57:43.403Z,155999.59
2023-12-04T04:00:13.021Z,156003.56
2023-12-04T04:02:41.095Z,155938.81
2023-12-04T04:05:09.452Z,155959.97
2023-12-04T04:07:37.203Z,155979.75
2023-12-04T04:10:05.963Z,155961.28
2023-12-04T04:12:34.550Z,155957.28
2023-12-04T04:15:02.419Z,155966.56
2023-12-04T04:17:30.966Z,155926.91
2023-12-04T04:19:59.671Z,155977.13
2023-12-04T04:22:27.524Z,155916.31
2023-12-04T04:24:56.786Z,155934.84
2023-12-04T04:27:25.749Z,155958.59
2023-12-04T04:29:54.057Z,155916.31
2023-12-04T04:32:21.898Z,155934.84
2023-12-04T04:34:50.185Z,155941.44
2023-12-04T04:37:17.869Z,155930.84
2023-12-04T04:39:46.160Z,155926.91
2023-12-04T04:42:13.965Z,155904.47
2023-12-04T04:44:41.909Z,155911.06
2023-12-04T04:47:09.763Z,155878.03
2023-12-04T04:49:38.153Z,155903.09
2023-12-04T04:52:06.789Z,155921.63
2023-12-04T04:54:34.847Z,155929.53
2023-12-04T04:57:03.085Z,155944.06
2023-12-04T04:59:31.898Z,155926.91
2023-12-04T05:01:59.830Z,155899.16
2023-12-04T05:04:27.844Z,155928.22
2023-12-04T05:06:55.784Z,155937.47
2023-12-04T05:09:23.897Z,155901.78
2023-12-04T05:11:51.514Z,155912.38
2023-12-04T05:14:19.846Z,155913.69
2023-12-04T05:16:47.311Z,155885.94
2023-12-04T05:19:15.513Z,155887.25
2023-12-04T05:21:43.173Z,155888.56
2023-12-04T05:24:11.192Z,155901.78
2023-12-04T05:26:38.811Z,155835.75
2023-12-04T05:29:06.592Z,155864.81
2023-12-04T05:31:34.213Z,155825.16
2023-12-04T05:34:02.557Z,155860.81
2023-12-04T05:36:30.457Z,155921.63
2023-12-04T05:39:01.444Z,155903.09
2023-12-04T05:41:29.656Z,155916.31
2023-12-04T05:43:57.727Z,155949.38
2023-12-04T05:46:25.802Z,155940.13
2023-12-04T05:48:53.785Z,155892.56
2023-12-04T05:51:21.476Z,155854.22
2023-12-04T05:53:49.752Z,155827.81
2023-12-04T05:56:17.536Z,155821.22
2023-12-04T05:58:45.953Z,155790.81
2023-12-04T06:01:13.477Z,155756.47
2023-12-04T06:03:41.158Z,155727.41
2023-12-04T06:06:09.434Z,155767.06
2023-12-04T06:08:37.835Z,155748.53
2023-12-04T06:11:06.049Z,155715.56
2023-12-04T06:13:34.411Z,155755.16
2023-12-04T06:16:02.380Z,155734.03
2023-12-04T06:18:31.228Z,155732.72
2023-12-04T06:20:59.028Z,155764.44
2023-12-04T06:23:27.544Z,155769.69
2023-12-04T06:25:55.425Z,155764.44
2023-12-04T06:28:24.952Z,155751.22
2023-12-04T06:30:53.059Z,155757.81
2023-12-04T06:33:21.983Z,155774.97
2023-12-04T06:35:50.270Z,155781.56
2023-12-04T06:38:20.791Z,155759.13
2023-12-04T06:40:48.662Z,155765.75
2023-12-04T06:43:20.189Z,155760.44
2023-12-04T06:45:48.884Z,155757.81
2023-12-04T06:48:19.007Z,155769.69
2023-12-04T06:50:47.079Z,155759.13
2023-12-04T06:53:15.992Z,155798.78
2023-12-04T06:55:44.102Z,155806.69
2023-12-04T06:58:12.405Z,155786.88
2023-12-04T07:00:41.385Z,155786.88
2023-12-04T07:03:12.464Z,155773.66
2023-12-04T07:05:40.907Z,155755.16
2023-12-04T07:08:09.191Z,155782.88
2023-12-04T07:10:37.370Z,155773.66
2023-12-04T07:13:05.864Z,155780.25
2023-12-04T07:15:33.617Z,155767.06
2023-12-04T07:18:03.072Z,155759.13
2023-12-04T07:20:31.488Z,155788.19
2023-12-04T07:23:00.310Z,155790.81
2023-12-04T07:25:28.948Z,155767.06
2023-12-04T07:27:59.429Z,155796.09
2023-12-04T07:30:28.313Z,155808.00
2023-12-04T07:32:56.296Z,155806.69
2023-12-04T07:35:25.739Z,155819.91
2023-12-04T07:37:54.396Z,155821.22
2023-12-04T07:40:24.657Z,155835.75
2023-12-04T07:42:53.805Z,155826.47
2023-12-04T07:45:22.725Z,155819.91
2023-12-04T07:47:53.923Z,155806.69
2023-12-04T07:50:21.906Z,155801.41
2023-12-04T07:52:50.416Z,155822.53
2023-12-04T07:55:19.052Z,155830.44
2023-12-04T07:57:47.723Z,155819.91
2023-12-04T08:00:16.460Z,155830.44
2023-12-04T08:02:47.306Z,155814.63
2023-12-04T08:05:16.674Z,155829.16
2023-12-04T08:07:45.283Z,155835.75
2023-12-04T08:10:13.110Z,155804.03
2023-12-04T08:12:41.684Z,155839.69
2023-12-04T08:15:10.703Z,155841.03
2023-12-04T08:17:40.132Z,155841.03
2023-12-04T08:20:10.096Z,155831.75
2023-12-04T08:22:38.601Z,155823.84
2023-12-04T08:25:07.419Z,155797.41
2023-12-04T08:27:36.710Z,155811.94
2023-12-04T08:30:08.118Z,155814.63
2023-12-04T08:32:36.656Z,155793.47
2023-12-04T08:35:06.722Z,155815.94
2023-12-04T08:37:35.341Z,155801.41
2023-12-04T08:40:04.948Z,155767.06
2023-12-04T08:42:34.048Z,155788.19
2023-12-04T08:45:02.814Z,155798.78
2023-12-04T08:47:31.640Z,155801.41
2023-12-04T08:49:59.865Z,155808.00
2023-12-04T08:52:29.815Z,155808.00
2023-12-04T08:54:58.639Z,155805.34
2023-12-04T08:57:27.063Z,155806.69
2023-12-04T08:59:55.157Z,155827.81
2023-12-04T09:02:23.725Z,155842.34
2023-12-04T09:04:52.203Z,155819.91
2023-12-04T09:09:52.376Z,155847.66
2023-12-04T09:12:21.511Z,155833.06
2023-12-04T09:14:49.560Z,155823.84
2023-12-04T09:17:18.490Z,155830.44
2023-12-04T09:19:47.731Z,155814.63
2023-12-04T09:22:19.788Z,155843.66
2023-12-04T09:24:49.336Z,155842.34
2023-12-04T09:27:18.737Z,155842.34
2023-12-04T09:29:46.493Z,155826.47
2023-12-04T09:32:14.808Z,155884.63
2023-12-04T09:34:43.046Z,155916.31
2023-12-04T09:37:12.471Z,155933.53
2023-12-04T09:39:42.522Z,155920.31
2023-12-04T09:42:11.291Z,155930.84
2023-12-04T09:44:40.536Z,155916.31
2023-12-04T09:47:09.549Z,155905.78
2023-12-04T09:49:38.486Z,155930.84
2023-12-04T09:52:07.157Z,155880.66
2023-12-04T09:54:37.242Z,155899.16
2023-12-04T09:57:06.749Z,155881.97
2023-12-04T09:59:36.894Z,155883.31
2023-12-04T10:02:06.453Z,155899.16
2023-12-04T10:04:36.211Z,155912.38
2023-12-04T10:07:05.897Z,155907.09
2023-12-04T10:09:34.119Z,155907.09
2023-12-04T10:12:03.274Z,155934.84
2023-12-04T10:14:31.775Z,155942.75
2023-12-04T10:17:00.703Z,155954.66
2023-12-04T10:19:33.053Z,155958.59
2023-12-04T10:22:01.827Z,155948.06
2023-12-04T10:24:33.612Z,155946.75
2023-12-04T10:27:02.429Z,155922.94
2023-12-04T10:29:34.129Z,155954.66
2023-12-04T10:32:03.788Z,155942.75
2023-12-04T10:34:35.502Z,155920.31
2023-12-04T10:37:08.099Z,155950.69
2023-12-04T10:39:56.020Z,155978.44
2023-12-04T10:42:28.933Z,156022.09
2023-12-04T10:45:01.257Z,156014.13
2023-12-04T10:47:32.165Z,156019.41
2023-12-04T10:50:00.172Z,155983.75
2023-12-04T10:52:31.262Z,155989.03
2023-12-04T10:55:01.007Z,156044.56
2023-12-04T10:57:40.039Z,156065.72
2023-12-04T11:00:10.736Z,156100.09
2023-12-04T11:02:49.654Z,156080.25
2023-12-04T11:05:19.284Z,156065.72
2023-12-04T11:08:15.076Z,156073.63
2023-12-04T11:11:10.746Z,156110.63
2023-12-04T11:13:43.934Z,156121.25
2023-12-04T11:16:33.089Z,156092.16
2023-12-04T11:19:40.606Z,156147.69
2023-12-04T11:22:09.261Z,156163.56
2023-12-04T11:24:38.009Z,156176.78
2023-12-04T11:27:06.552Z,156205.88
2023-12-04T11:29:36.225Z,156230.97
2023-12-04T11:32:08.556Z,156238.97
2023-12-04T11:34:38.581Z,156220.41
2023-12-04T11:37:07.783Z,156208.50
2023-12-04T11:39:40.040Z,156221.72
2023-12-04T11:42:08.587Z,156197.94
2023-12-04T11:44:37.278Z,156219.09
2023-12-04T11:47:07.824Z,156241.59
2023-12-04T11:49:37.571Z,156196.63
2023-12-04T11:52:06.360Z,156201.88
2023-12-04T11:55:01.903Z,156211.19
2023-12-04T11:57:35.664Z,156200.56
2023-12-04T12:00:12.866Z,156238.97
2023-12-04T12:03:14.732Z,156234.97
2023-12-04T12:05:33.660Z,156200.56
2023-12-04T12:08:04.358Z,156187.34
2023-12-04T12:10:32.289Z,156184.72
2023-12-04T12:13:00.669Z,156187.34
2023-12-04T12:15:30.771Z,156188.66
2023-12-04T12:17:59.348Z,156180.72
2023-12-04T12:20:28.506Z,156192.66
2023-12-04T12:22:56.416Z,156187.34
2023-12-04T12:25:28.987Z,156211.19
2023-12-04T12:27:58.148Z,156221.72
2023-12-04T12:30:27.459Z,156208.50
2023-12-04T12:32:56.762Z,156201.88
2023-12-04T12:35:26.831Z,156223.03
2023-12-04T12:37:55.032Z,156230.97
2023-12-04T12:40:23.625Z,156248.19
2023-12-04T12:42:53.286Z,156246.88
2023-12-04T12:45:22.569Z,156256.13
2023-12-04T12:47:53.419Z,156242.91
2023-12-04T12:50:23.497Z,156238.97
2023-12-04T12:52:51.360Z,156245.56
2023-12-04T12:55:26.353Z,156238.97
2023-12-04T12:57:59.897Z,156244.22
2023-12-04T13:00:29.591Z,156242.91
2023-12-04T13:02:58.034Z,156241.59
2023-12-04T13:05:26.690Z,156240.28
2023-12-04T13:07:54.557Z,156219.09
2023-12-04T13:10:24.528Z,156237.59
2023-12-04T13:12:55.232Z,156236.28
2023-12-04T13:15:23.330Z,156236.28
2023-12-04T13:17:52.003Z,156213.81
2023-12-04T13:20:20.417Z,156204.56
2023-12-04T13:22:48.583Z,156219.09
2023-12-04T13:25:17.369Z,156203.19
2023-12-04T13:27:45.870Z,156211.19
2023-12-04T13:30:14.509Z,156212.50
2023-12-04T13:32:42.633Z,156216.44
2023-12-04T13:35:13.090Z,156211.19
2023-12-04T13:37:41.693Z,156217.78
2023-12-04T13:40:14.191Z,156216.44
2023-12-04T13:43:00.476Z,156195.28
2023-12-04T13:45:28.899Z,156176.78
2023-12-04T13:47:57.354Z,156175.44
2023-12-04T13:50:26.268Z,156168.84
2023-12-04T13:52:57.741Z,156179.41
2023-12-04T13:55:53.252Z,156174.09
2023-12-04T13:58:47.300Z,156182.03
2023-12-04T14:01:16.271Z,156174.09
2023-12-04T14:03:46.010Z,156175.44
2023-12-04T14:06:15.124Z,156131.78
2023-12-04T14:08:43.946Z,156137.09
2023-12-04T14:11:12.683Z,156149.00
2023-12-04T14:13:41.063Z,156152.94
2023-12-04T14:16:10.616Z,156154.25
2023-12-04T14:18:38.485Z,156151.63
2023-12-04T14:21:08.209Z,156139.72
2023-12-04T14:23:36.338Z,156137.09
2023-12-04T14:26:04.667Z,156111.94
2023-12-04T14:28:40.148Z,156089.50
2023-12-04T14:31:12.744Z,156108.03
2023-12-04T14:33:43.244Z,156105.34
2023-12-04T14:36:15.949Z,156100.09
2023-12-04T14:38:44.149Z,156086.88
2023-12-04T14:41:12.948Z,156108.03
2023-12-04T14:43:41.329Z,156102.72
2023-12-04T14:46:10.752Z,156098.78
2023-12-04T14:48:41.220Z,156127.84
2023-12-04T14:51:12.897Z,156209.81
2023-12-04T14:53:46.884Z,156242.91
2023-12-04T14:56:36.076Z,156282.59
2023-12-04T14:59:07.637Z,156305.06
2023-12-04T15:01:54.884Z,156340.81
2023-12-04T15:04:25.520Z,156359.34
2023-12-04T15:07:12.276Z,156393.75
2023-12-04T15:10:06.103Z,156339.47
2023-12-04T15:12:55.272Z,156303.75
2023-12-04T15:15:50.117Z,156314.31
2023-12-04T15:18:48.046Z,156248.19
2023-12-04T15:21:16.583Z,156249.50
2023-12-04T15:23:44.901Z,156223.03
2023-12-04T15:26:13.026Z,156224.41
2023-12-04T15:28:41.893Z,156215.13
2023-12-04T15:31:11.082Z,156192.66
2023-12-04T15:33:39.542Z,156201.88
2023-12-04T15:36:10.650Z,156234.97
2023-12-04T15:38:39.360Z,156234.97
2023-12-04T15:41:07.508Z,156207.19
2023-12-04T15:43:35.716Z,156221.72
2023-12-04T15:46:04.740Z,156201.88
2023-12-04T15:48:36.681Z,156199.25
2023-12-04T15:51:06.170Z,156221.72
2023-12-04T15:53:34.620Z,156190.00
2023-12-04T15:56:07.805Z,156197.94
2023-12-04T15:58:38.853Z,156188.66
2023-12-04T16:01:07.483Z,156163.56
2023-12-04T16:03:36.137Z,156146.34
2023-12-04T16:06:04.780Z,156180.72
2023-12-04T16:08:33.503Z,156197.94
2023-12-04T16:11:01.482Z,156208.50
2023-12-04T16:13:30.236Z,156204.56
2023-12-04T16:15:58.579Z,156160.88
2023-12-04T16:18:27.003Z,156149.00
2023-12-04T16:20:55.254Z,156146.34
2023-12-04T16:23:24.704Z,156147.69
2023-12-04T16:25:55.799Z,156143.72
2023-12-04T16:28:24.914Z,156130.47
2023-12-04T16:30:53.082Z,156130.47
2023-12-04T16:33:22.486Z,156110.63
2023-12-04T16:35:52.216Z,156098.78
2023-12-04T16:38:20.778Z,156110.63
2023-12-04T16:40:48.639Z,156114.63
2023-12-04T16:43:17.759Z,156101.41
2023-12-04T16:45:46.542Z,156094.78
2023-12-04T16:48:14.697Z,156108.03
2023-12-04T16:50:43.063Z,156131.78
2023-12-04T16:53:12.721Z,156111.94
2023-12-04T16:55:40.610Z,156117.25
2023-12-04T16:58:10.574Z,156152.94
2023-12-04T17:00:39.842Z,156154.25
2023-12-04T17:03:09.114Z,156130.47
2023-12-04T17:05:37.952Z,156142.41
2023-12-04T17:08:06.568Z,156130.47
2023-12-04T17:10:34.477Z,156145.03
2023-12-04T17:13:03.902Z,156119.94
2023-12-04T17:15:32.084Z,156126.50
2023-12-04T17:18:01.195Z,156134.47
2023-12-04T17:20:29.456Z,156139.72
2023-12-04T17:22:58.853Z,156076.25
2023-12-04T17:25:26.755Z,156127.84
2023-12-04T17:27:58.884Z,156102.72
2023-12-04T17:30:27.009Z,156047.19
2023-12-04T17:32:55.544Z,155990.34
2023-12-04T17:35:23.768Z,155969.19
2023-12-04T17:37:51.924Z,155979.75
2023-12-04T17:40:21.556Z,155999.59
2023-12-04T17:42:51.985Z,155982.44
2023-12-04T17:45:19.956Z,155950.69
2023-12-04T17:47:48.403Z,155958.59
2023-12-04T17:50:17.897Z,155955.97
2023-12-04T17:52:46.543Z,155948.06
2023-12-04T17:55:15.511Z,155904.47
2023-12-04T17:57:44.431Z,155917.69
2023-12-04T18:00:16.139Z,155922.94
2023-12-04T18:02:47.058Z,155901.78
2023-12-04T18:05:16.119Z,155911.06
2023-12-04T18:07:44.895Z,155908.41
2023-12-04T18:10:13.267Z,155911.06
2023-12-04T18:12:42.085Z,155896.53
2023-12-04T18:15:13.643Z,155822.53
2023-12-04T18:17:46.230Z,155802.72
2023-12-04T18:20:16.844Z,155785.56
2023-12-04T18:22:46.466Z,155780.25
2023-12-04T18:25:15.183Z,155785.56
2023-12-04T18:27:44.641Z,155767.06
2023-12-04T18:30:14.749Z,155757.81
2023-12-04T18:32:43.736Z,155757.81
2023-12-04T18:35:12.397Z,155764.44
2023-12-04T18:37:46.737Z,155689.16
2023-12-04T18:40:15.041Z,155704.97
2023-12-04T18:42:44.075Z,155702.34
2023-12-04T18:45:13.022Z,155675.94
2023-12-04T18:47:45.835Z,155681.22
2023-12-04T18:50:14.576Z,155723.47
2023-12-04T18:52:43.118Z,155694.44
2023-12-04T18:55:11.890Z,155699.69
2023-12-04T18:57:40.086Z,155687.84
2023-12-04T19:00:09.236Z,155677.25
2023-12-04T19:02:37.815Z,155711.59
2023-12-04T19:05:06.174Z,155711.59
2023-12-04T19:07:35.136Z,155652.13
2023-12-04T19:10:03.009Z,155681.22
2023-12-04T19:12:31.869Z,155678.56
2023-12-04T19:14:59.878Z,155650.81
2023-12-04T19:17:28.223Z,155642.91
2023-12-04T19:19:56.207Z,155646.91
2023-12-04T19:22:24.713Z,155644.22
2023-12-04T19:24:53.285Z,155674.63
2023-12-04T19:27:21.689Z,155687.84
2023-12-04T19:29:52.416Z,155683.84
2023-12-04T19:32:21.734Z,155687.84
2023-12-04T19:34:50.966Z,155699.69
2023-12-04T19:37:19.127Z,155690.44
2023-12-04T19:39:46.589Z,155682.53
2023-12-04T19:42:15.341Z,155625.78
2023-12-04T19:44:47.422Z,155629.69
2023-12-04T19:47:17.272Z,155518.81
2023-12-04T19:49:45.873Z,155537.31
2023-12-04T19:52:14.932Z,155541.28
2023-12-04T19:54:43.851Z,155542.59
2023-12-04T19:57:12.592Z,155488.47
2023-12-04T19:59:40.718Z,155503.00
2023-12-04T20:02:08.902Z,155467.38
2023-12-04T20:04:42.083Z,155473.97
2023-12-04T20:07:11.932Z,155434.38
2023-12-04T20:09:40.690Z,155425.16
2023-12-04T20:12:09.090Z,155363.16
2023-12-04T20:14:37.893Z,155355.22
2023-12-04T20:17:06.341Z,155293.25
2023-12-04T20:19:34.147Z,155225.97
2023-12-04T20:22:02.315Z,155167.97
2023-12-04T20:24:30.869Z,155216.75
2023-12-04T20:26:59.651Z,155179.84
2023-12-04T20:29:27.411Z,155135.00
2023-12-04T20:31:55.912Z,155012.53
2023-12-04T20:34:24.137Z,154986.16
2023-12-04T20:36:56.094Z,154922.94
2023-12-04T20:39:24.492Z,154929.53
2023-12-04T20:41:53.512Z,154950.59
2023-12-04T20:44:21.474Z,154991.44
2023-12-04T20:46:51.377Z,154925.56
2023-12-04T20:49:19.794Z,154954.53
2023-12-04T20:51:48.701Z,154944.00
2023-12-04T20:54:17.154Z,154911.06
2023-12-04T20:56:45.875Z,154863.66
2023-12-04T20:59:14.233Z,154899.19
2023-12-04T21:01:42.374Z,154854.44
2023-12-04T21:04:10.551Z,154886.03
2023-12-04T21:06:39.121Z,154899.19
2023-12-04T21:09:06.848Z,154924.25
2023-12-04T21:11:35.704Z,154903.19
2023-12-04T21:14:04.233Z,154886.03
2023-12-04T21:16:32.835Z,154880.78
2023-12-04T21:19:01.188Z,154921.63
2023-12-04T21:21:29.647Z,154933.44
2023-12-04T21:23:58.203Z,154936.13
2023-12-04T21:26:26.680Z,154971.69
2023-12-04T21:28:54.647Z,154937.44
2023-12-04T21:31:23.269Z,154951.91
2023-12-04T21:33:51.763Z,154963.78
2023-12-04T21:36:19.601Z,154944.00
2023-12-04T21:38:47.400Z,154950.59
2023-12-04T21:41:15.895Z,154911.06
2023-12-04T21:43:44.093Z,154895.28
2023-12-04T21:46:12.249Z,154851.78
2023-12-04T21:48:40.865Z,154833.38
2023-12-04T21:51:09.631Z,154832.06
2023-12-04T21:53:37.745Z,154803.06
2023-12-04T21:56:06.371Z,154796.53
2023-12-04T21:58:34.280Z,154780.69
2023-12-04T22:01:02.477Z,154796.53
2023-12-04T22:03:30.340Z,154800.44
2023-12-04T22:05:59.540Z,154792.56
2023-12-04T22:08:28.194Z,154779.38
2023-12-04T22:10:56.619Z,154766.22
2023-12-04T22:13:24.554Z,154735.94
2023-12-04T22:15:52.993Z,154753.03
2023-12-04T22:18:21.016Z,154746.44
2023-12-04T22:20:49.105Z,154720.16
2023-12-04T22:23:18.302Z,154766.22
2023-12-04T22:25:47.026Z,154767.50
2023-12-04T22:28:15.701Z,154734.63
2023-12-04T22:30:44.974Z,154688.56
2023-12-04T22:33:13.342Z,154767.50
2023-12-04T22:35:42.524Z,154762.28
2023-12-04T22:38:13.734Z,154768.88
2023-12-04T22:40:42.652Z,154763.59
2023-12-04T22:43:10.518Z,154783.34
2023-12-04T22:45:39.468Z,154803.06
2023-12-04T22:48:07.896Z,154816.22
2023-12-04T22:50:36.857Z,154793.84
2023-12-04T22:53:09.460Z,154796.53
2023-12-04T22:55:38.124Z,154780.69
2023-12-04T22:58:06.263Z,154776.75
2023-12-04T23:00:34.492Z,154770.19
2023-12-04T23:03:02.617Z,154735.94
2023-12-04T23:05:31.168Z,154731.97
2023-12-04T23:07:59.084Z,154709.59
2023-12-04T23:10:27.871Z,154716.19
2023-12-04T23:12:58.003Z,154707.00
2023-12-04T23:15:26.714Z,154692.53
2023-12-04T23:17:55.369Z,154697.75
2023-12-04T23:20:23.902Z,154679.34
2023-12-04T23:22:52.543Z,154670.09
2023-12-04T23:25:21.342Z,154667.50
2023-12-04T23:27:49.726Z,154670.09
2023-12-04T23:30:17.799Z,154659.59
2023-12-04T23:32:46.282Z,154654.31
2023-12-04T23:35:15.206Z,154646.44
2023-12-04T23:37:43.387Z,154621.41
2023-12-04T23:40:11.959Z,154625.38
2023-12-04T23:42:40.866Z,154646.44
2023-12-04T23:45:09.882Z,154655.63
2023-12-04T23:47:38.210Z,154646.44
2023-12-04T23:50:07.308Z,154666.19
2023-12-04T23:52:35.476Z,154649.06
2023-12-04T23:55:04.649Z,154651.72
2023-12-04T23:57:32.351Z,154650.34
